Time;durP1;ratioP1;P1;durP2;ratioP2;P2;SDS_P1;SDS_P2;PMS_P1;PMS_P2;Temp;Humidity;BMP_temperature;BMP_pressure;BME280_temperature;BME280_humidity;BME280_pressure;Samples;Min_cycle;Max_cycle;Signal;HPM_P1;HPM_P2
2022/12/06 00:01:43;;;;;;;7.85;3.00;;;4.10;82.60;;;;;;4161465;28;20534;-83
2022/12/06 00:03:45;;;;;;;7.20;3.20;;;4.10;83.40;;;;;;4142821;28;20126;-81
2022/12/06 00:05:46;;;;;;;8.98;3.30;;;4.10;82.70;;;;;;4125798;28;20027;-81
2022/12/06 00:07:48;;;;;;;4.13;2.72;;;4.10;82.80;;;;;;4159399;28;20033;-84
2022/12/06 00:10:09;;;;;;;9.50;2.88;;;4.00;82.80;;;;;;4157150;28;20097;-81
2022/12/06 00:12:30;;;;;;;6.68;3.35;;;4.10;82.80;;;;;;4160845;28;20542;-82
2022/12/06 00:14:50;;;;;;;5.78;3.20;;;4.10;82.90;;;;;;4159614;28;20088;-83
2022/12/06 00:17:11;;;;;;;7.18;4.30;;;4.10;82.80;;;;;;4145639;28;20054;-82
2022/12/06 00:19:31;;;;;;;10.40;5.50;;;4.10;82.80;;;;;;4170621;28;20022;-82
2022/12/06 00:21:53;;;;;;;10.48;6.05;;;4.10;82.90;;;;;;4162194;28;20069;-82
2022/12/06 00:24:19;;;;;;;15.63;6.15;;;4.10;82.70;;;;;;4161169;28;20029;-81
2022/12/06 00:26:42;;;;;;;14.05;6.15;;;4.10;83.20;;;;;;4148084;28;20022;-82
2022/12/06 00:29:04;;;;;;;12.30;6.50;;;4.10;82.30;;;;;;4165573;28;20034;-83
2022/12/06 00:31:26;;;;;;;15.77;6.93;;;4.10;82.30;;;;;;4160056;28;20124;-83
2022/12/06 00:33:47;;;;;;;14.35;6.05;;;4.10;82.10;;;;;;4159924;28;20041;-83
2022/12/06 00:36:28;;;;;;;14.75;7.07;;;4.10;82.10;;;;;;4163311;28;20103;-83
2022/12/06 00:38:50;;;;;;;15.93;7.22;;;4.00;82.00;;;;;;4146511;28;20039;-82
2022/12/06 00:41:14;;;;;;;17.25;7.05;;;4.00;81.90;;;;;;4143151;28;20065;-82
2022/12/06 00:43:14;;;;;;;13.65;7.78;;;4.00;81.80;;;;;;4159132;28;20029;-82
2022/12/06 00:45:15;;;;;;;23.35;7.35;;;4.00;81.90;;;;;;4162096;28;20053;-81
2022/12/06 00:47:16;;;;;;;13.77;7.03;;;4.00;82.00;;;;;;4162057;28;20049;-83
2022/12/06 00:49:16;;;;;;;17.17;6.97;;;4.00;82.10;;;;;;4160133;28;20402;-83
2022/12/06 00:51:18;;;;;;;13.52;6.57;;;4.00;82.10;;;;;;4142819;28;20033;-83
2022/12/06 00:53:19;;;;;;;12.88;6.53;;;3.90;82.00;;;;;;4145338;28;20029;-82
2022/12/06 00:55:20;;;;;;;14.52;6.80;;;3.90;82.10;;;;;;4158937;28;20105;-82
2022/12/06 00:57:22;;;;;;;12.23;7.32;;;3.90;82.10;;;;;;4142418;28;20030;-82
2022/12/06 00:59:26;;;;;;;13.90;7.47;;;3.90;82.20;;;;;;4159116;28;20018;-83
2022/12/06 01:01:46;;;;;;;12.40;7.00;;;3.90;82.10;;;;;;4149560;28;20060;-82
2022/12/06 01:04:08;;;;;;;14.52;7.60;;;3.90;82.20;;;;;;4154320;28;20048;-83
2022/12/06 01:06:32;;;;;;;12.65;6.50;;;3.80;82.10;;;;;;4157390;28;20114;-83
2022/12/06 01:08:39;;;;;;;13.65;6.45;;;3.90;82.20;;;;;;4144018;28;20026;-82
2022/12/06 01:11:00;;;;;;;15.15;6.55;;;3.90;82.30;;;;;;4143572;28;20038;-80
2022/12/06 01:13:21;;;;;;;16.17;6.47;;;3.80;82.30;;;;;;4157831;28;20093;-82
2022/12/06 01:15:41;;;;;;;13.70;6.25;;;3.80;82.30;;;;;;4163490;28;20040;-83
2022/12/06 01:18:02;;;;;;;15.60;6.65;;;3.80;82.50;;;;;;4155093;28;20091;-82
2022/12/06 01:20:23;;;;;;;10.98;6.13;;;3.80;82.40;;;;;;4158333;28;20037;-83
2022/12/06 01:22:44;;;;;;;11.45;6.50;;;3.80;82.50;;;;;;4159929;28;20036;-83
2022/12/06 01:24:46;;;;;;;10.85;6.00;;;3.80;82.50;;;;;;4140146;28;20500;-81
2022/12/06 01:26:47;;;;;;;12.75;5.78;;;3.80;82.50;;;;;;4157567;28;20030;-82
2022/12/06 01:28:47;;;;;;;10.90;6.20;;;3.80;82.50;;;;;;4130130;28;20041;-82
2022/12/06 01:30:49;;;;;;;13.88;6.60;;;3.80;82.60;;;;;;4127807;28;20049;-82
2022/12/06 01:33:10;;;;;;;15.02;7.20;;;3.80;82.60;;;;;;4160201;28;20079;-82
2022/12/06 01:35:30;;;;;;;12.52;6.75;;;3.80;83.40;;;;;;4145244;28;20037;-81
2022/12/06 01:37:51;;;;;;;12.85;6.47;;;3.80;82.70;;;;;;4165012;28;20064;-82
2022/12/06 01:40:12;;;;;;;12.30;7.05;;;3.80;82.70;;;;;;4149796;28;20037;-82
2022/12/06 01:42:33;;;;;;;18.08;6.60;;;3.70;82.60;;;;;;4150441;28;20040;-81
2022/12/06 01:44:56;;;;;;;13.00;6.53;;;3.70;82.60;;;;;;4156172;28;20041;-83
2022/12/06 01:47:37;;;;;;;15.20;7.38;;;3.70;82.60;;;;;;4166084;28;20040;-82
2022/12/06 01:50:03;;;;;;;17.13;8.45;;;3.80;82.60;;;;;;4160347;28;20587;-83
2022/12/06 01:52:29;;;;;;;13.75;7.57;;;3.80;82.60;;;;;;4165432;28;20038;-83
2022/12/06 01:54:50;;;;;;;13.18;7.28;;;3.80;82.50;;;;;;4163079;28;20060;-83
2022/12/06 01:56:52;;;;;;;15.73;7.57;;;3.90;82.50;;;;;;4163887;28;20525;-81
2022/12/06 01:58:55;;;;;;;15.93;7.57;;;3.80;82.40;;;;;;4164303;28;20767;-82
2022/12/06 02:00:55;;;;;;;14.02;6.90;;;3.80;82.30;;;;;;4152391;28;20079;-81
2022/12/06 02:03:00;;;;;;;16.25;8.10;;;3.80;82.30;;;;;;4159658;28;20127;-82
2022/12/06 02:05:02;;;;;;;14.85;7.38;;;3.80;82.30;;;;;;4161894;28;20496;-83
2022/12/06 02:07:04;;;;;;;14.60;7.43;;;3.80;82.20;;;;;;4161347;28;20037;-81
2022/12/06 02:09:08;;;;;;;13.85;7.45;;;3.80;82.20;;;;;;4144917;28;20506;-82
2022/12/06 02:11:08;;;;;;;12.98;7.50;;;3.80;82.10;;;;;;4161214;28;20057;-82
2022/12/06 02:13:09;;;;;;;14.35;7.60;;;3.80;82.10;;;;;;4142837;28;20110;-83
2022/12/06 02:15:15;;;;;;;15.10;7.15;;;3.90;82.10;;;;;;4145296;28;20152;-82
2022/12/06 02:17:39;;;;;;;12.77;7.00;;;3.80;82.00;;;;;;4158486;28;20037;-82
2022/12/06 02:20:14;;;;;;;10.93;7.00;;;3.90;82.10;;;;;;4133584;28;20071;-83
2022/12/06 02:22:53;;;;;;;12.20;6.88;;;3.80;81.80;;;;;;4145150;28;20130;-83
2022/12/06 02:25:57;;;;;;;13.70;6.70;;;3.90;81.90;;;;;;4147819;28;20025;-82
2022/12/06 02:28:27;;;;;;;11.45;6.78;;;3.80;81.70;;;;;;4161842;28;20104;-82
2022/12/06 02:30:54;;;;;;;14.07;6.22;;;3.80;81.70;;;;;;4166433;28;20068;-83
2022/12/06 02:34:13;;;;;;;12.27;6.78;;;3.80;81.70;;;;;;4162859;28;20028;-82
2022/12/06 02:36:42;;;;;;;11.88;6.25;;;3.80;81.70;;;;;;4154578;28;20056;-82
2022/12/06 02:39:21;;;;;;;14.25;7.07;;;3.80;81.60;;;;;;4162381;28;20439;-83
2022/12/06 02:42:01;;;;;;;14.70;6.05;;;3.80;81.60;;;;;;4162264;28;20072;-83
2022/12/06 02:44:29;;;;;;;10.95;5.95;;;3.80;81.70;;;;;;4162715;28;20025;-83
2022/12/06 02:46:50;;;;;;;12.75;5.95;;;3.80;81.80;;;;;;4165522;28;20049;-83
2022/12/06 02:49:12;;;;;;;11.65;6.18;;;3.80;81.60;;;;;;4152004;28;20104;-81
2022/12/06 02:51:36;;;;;;;12.23;5.30;;;3.80;81.60;;;;;;4161515;28;20084;-82
2022/12/06 02:53:59;;;;;;;13.75;5.90;;;3.80;81.70;;;;;;4163534;28;20025;-83
2022/12/06 02:56:21;;;;;;;13.63;6.32;;;3.80;81.60;;;;;;4162707;28;20065;-82
2022/12/06 02:58:42;;;;;;;15.07;6.28;;;3.80;81.70;;;;;;4163501;28;20076;-82
2022/12/06 03:01:01;;;;;;;14.93;6.50;;;3.80;81.60;;;;;;4163981;28;20045;-82
2022/12/06 03:03:38;;;;;;;14.70;6.70;;;3.80;81.60;;;;;;4158333;28;20022;-82
2022/12/06 03:06:11;;;;;;;12.43;6.18;;;3.90;81.70;;;;;;4158430;28;20064;-83
2022/12/06 03:08:23;;;;;;;9.45;6.13;;;3.80;81.70;;;;;;4160570;28;20113;-83
2022/12/06 03:10:43;;;;;;;9.93;6.15;;;3.90;81.60;;;;;;4125430;28;20035;-82
2022/12/06 03:12:57;;;;;;;11.25;6.32;;;3.80;81.60;;;;;;4140695;28;20324;-83
2022/12/06 03:15:36;;;;;;;11.90;5.65;;;3.90;81.60;;;;;;4159631;28;20132;-83
2022/12/06 03:18:12;;;;;;;10.05;6.35;;;3.80;81.50;;;;;;4162465;28;20040;-83
2022/12/06 03:20:41;;;;;;;11.30;5.70;;;3.80;81.50;;;;;;4163561;28;20029;-83
2022/12/06 03:23:05;;;;;;;13.10;5.70;;;3.90;81.60;;;;;;4162915;28;20076;-83
2022/12/06 03:25:26;;;;;;;;;;;3.90;81.60;;;;;;4164378;28;20068;-83
2022/12/06 03:27:48;;;;;;;9.57;5.32;;;3.90;81.70;;;;;;4163752;28;19909;-83
2022/12/06 03:30:12;;;;;;;10.07;5.63;;;3.90;81.40;;;;;;4164320;28;20410;-83
2022/12/06 03:32:35;;;;;;;12.63;5.50;;;3.90;81.50;;;;;;4162056;28;20125;-83
2022/12/06 03:35:01;;;;;;;10.73;5.87;;;4.00;81.60;;;;;;4163750;28;20029;-83
2022/12/06 03:37:24;;;;;;;16.48;5.85;;;3.90;81.40;;;;;;4160680;28;20044;-83
2022/12/06 03:40:06;;;;;;;10.32;5.72;;;3.90;81.40;;;;;;4159467;28;20044;-82
2022/12/06 03:42:28;;;;;;;14.57;5.70;;;4.00;81.40;;;;;;4149323;28;20430;-82
2022/12/06 03:44:49;;;;;;;12.15;6.60;;;4.00;81.40;;;;;;4160420;28;20049;-83
2022/12/06 03:46:55;;;;;;;11.82;6.80;;;4.00;81.40;;;;;;4144722;28;20523;-82
2022/12/06 03:49:00;;;;;;;12.50;6.57;;;4.00;81.30;;;;;;4142154;28;20031;-83
2022/12/06 03:51:05;;;;;;;11.63;6.60;;;4.00;81.40;;;;;;4159924;28;20200;-82
2022/12/06 03:53:06;;;;;;;12.90;6.75;;;4.00;81.30;;;;;;4146737;28;21883;-83
2022/12/06 03:55:07;;;;;;;10.93;6.13;;;4.00;81.30;;;;;;4158981;28;20029;-82
2022/12/06 03:57:09;;;;;;;13.43;6.55;;;4.00;81.20;;;;;;4166220;28;20085;-83
2022/12/06 03:59:10;;;;;;;13.43;6.90;;;4.00;81.20;;;;;;4161418;28;20021;-83
2022/12/06 04:01:31;;;;;;;14.55;6.93;;;4.00;81.30;;;;;;4148547;28;20058;-82
2022/12/06 04:03:52;;;;;;;14.18;6.50;;;4.10;82.00;;;;;;4161104;28;20034;-84
2022/12/06 04:06:13;;;;;;;12.63;6.20;;;4.00;81.20;;;;;;4162983;28;20087;-83
2022/12/06 04:08:34;;;;;;;12.15;5.75;;;4.00;81.90;;;;;;4159567;28;20037;-83
2022/12/06 04:10:54;;;;;;;9.85;6.00;;;4.00;81.00;;;;;;4158689;28;20137;-82
2022/12/06 04:13:16;;;;;;;12.32;6.28;;;4.00;80.90;;;;;;4155720;28;20029;-83
2022/12/06 04:15:38;;;;;;;12.43;6.20;;;4.10;81.00;;;;;;4161787;28;20041;-83
2022/12/06 04:18:15;;;;;;;11.68;6.03;;;4.00;80.90;;;;;;4162251;28;20026;-83
2022/12/06 04:23:03;;;;;;;12.82;5.65;;;3.90;80.70;;;;;;4157521;28;20085;-83
2022/12/06 04:25:04;;;;;;;12.70;5.07;;;4.00;80.60;;;;;;4144335;28;20037;-83
2022/12/06 04:39:44;;;;;;;12.75;7.03;;;4.00;80.50;;;;;;4157812;28;20040;-82
2022/12/06 04:44:45;;;;;;;13.70;7.70;;;4.00;80.60;;;;;;4160217;28;20034;-83
2022/12/06 04:47:06;;;;;;;14.27;7.43;;;4.00;80.50;;;;;;4139967;28;20046;-83
2022/12/06 04:49:26;;;;;;;14.60;7.38;;;4.00;80.40;;;;;;4151681;28;20034;-83
2022/12/06 04:51:47;;;;;;;19.20;7.55;;;3.90;80.30;;;;;;4161883;28;20694;-82
2022/12/06 04:53:47;;;;;;;18.17;7.28;;;3.90;80.20;;;;;;4149462;28;20032;-84
2022/12/06 04:55:49;;;;;;;14.38;7.93;;;3.90;80.30;;;;;;4147336;28;20033;-82
2022/12/06 04:58:03;;;;;;;14.32;7.40;;;3.90;80.30;;;;;;4144803;28;20030;-82
2022/12/06 05:00:23;;;;;;;16.25;7.25;;;3.90;80.40;;;;;;4162324;28;20060;-82
2022/12/06 05:02:44;;;;;;;11.15;6.93;;;3.90;80.40;;;;;;4160599;28;20068;-82
2022/12/06 05:05:05;;;;;;;12.68;7.60;;;3.90;80.40;;;;;;4158616;28;20022;-83
2022/12/06 05:07:26;;;;;;;18.38;7.13;;;3.90;80.40;;;;;;4164077;28;20025;-83
2022/12/06 05:09:46;;;;;;;11.85;6.90;;;3.90;80.40;;;;;;4168089;28;20064;-82
2022/12/06 05:11:54;;;;;;;12.52;6.38;;;3.90;80.50;;;;;;4164968;28;20061;-83
2022/12/06 05:13:55;;;;;;;11.60;6.45;;;3.90;80.40;;;;;;4162582;28;20032;-83
2022/12/06 05:16:16;;;;;;;12.88;6.65;;;3.90;80.50;;;;;;4163936;28;20160;-83
2022/12/06 05:18:37;;;;;;;13.00;6.70;;;3.90;80.50;;;;;;4161719;28;20034;-83
2022/12/06 05:21:05;;;;;;;12.32;7.18;;;3.90;80.50;;;;;;4162793;28;20040;-83
2022/12/06 05:23:25;;;;;;;11.38;6.82;;;3.90;80.40;;;;;;4164181;28;20056;-83
2022/12/06 05:25:46;;;;;;;15.27;6.72;;;3.90;80.40;;;;;;4169323;28;20113;-82
2022/12/06 05:28:07;;;;;;;12.10;6.85;;;3.90;80.40;;;;;;4163590;28;20510;-83
2022/12/06 05:30:28;;;;;;;12.93;6.90;;;3.90;80.20;;;;;;4147566;28;20117;-83
2022/12/06 05:32:49;;;;;;;13.10;6.85;;;3.90;80.20;;;;;;4151558;28;20421;-83
2022/12/06 05:35:09;;;;;;;14.50;6.95;;;3.90;80.10;;;;;;4161323;28;20108;-82
2022/12/06 05:37:30;;;;;;;11.27;6.63;;;3.90;80.00;;;;;;4162288;28;20040;-82
2022/12/06 05:39:50;;;;;;;17.33;6.78;;;3.80;79.90;;;;;;4160358;28;20407;-83
2022/12/06 05:42:11;;;;;;;13.55;6.72;;;3.90;79.80;;;;;;4148883;28;20617;-82
2022/12/06 05:44:31;;;;;;;11.00;6.10;;;3.80;79.80;;;;;;4158884;28;20037;-82
2022/12/06 05:46:32;;;;;;;12.65;6.25;;;3.80;79.90;;;;;;4156162;28;20034;-81
2022/12/06 05:48:33;;;;;;;12.77;6.25;;;3.80;79.80;;;;;;4162251;28;20036;-82
2022/12/06 05:50:35;;;;;;;12.60;6.10;;;3.80;79.80;;;;;;4159958;28;20022;-82
2022/12/06 05:52:36;;;;;;;9.55;5.80;;;3.70;79.70;;;;;;4162675;28;20106;-83
2022/12/06 05:54:36;;;;;;;10.25;5.78;;;3.70;79.60;;;;;;4163471;28;20096;-82
2022/12/06 05:56:38;;;;;;;15.38;6.18;;;3.80;79.70;;;;;;4159559;28;20033;-82
2022/12/06 05:58:40;;;;;;;12.73;6.35;;;3.70;79.70;;;;;;4156717;28;20021;-81
2022/12/06 06:00:40;;;;;;;17.42;6.65;;;3.70;79.70;;;;;;4159021;28;20025;-82
2022/12/06 06:02:41;;;;;;;12.25;6.40;;;3.70;79.70;;;;;;4157725;28;20572;-82
2022/12/06 06:04:45;;;;;;;12.70;6.47;;;3.60;79.60;;;;;;4147016;28;20245;-82
2022/12/06 06:06:46;;;;;;;13.20;6.78;;;3.60;79.60;;;;;;4154402;28;20053;-82
2022/12/06 06:09:07;;;;;;;8.70;5.57;;;3.60;79.60;;;;;;4158040;28;20029;-82
2022/12/06 06:11:28;;;;;;;14.98;6.55;;;3.60;79.70;;;;;;4147350;28;20064;-82
2022/12/06 06:13:48;;;;;;;11.07;6.03;;;3.60;79.60;;;;;;4165976;28;20079;-82
2022/12/06 06:16:09;;;;;;;11.27;5.70;;;3.70;79.80;;;;;;4147221;28;20045;-82
2022/12/06 06:18:30;;;;;;;9.25;5.65;;;3.60;79.70;;;;;;4157138;28;20025;-83
2022/12/06 06:20:53;;;;;;;10.48;6.43;;;3.60;79.70;;;;;;4156618;28;20033;-83
2022/12/06 06:23:13;;;;;;;11.25;6.18;;;3.70;79.70;;;;;;4161174;28;20036;-83
2022/12/06 06:25:34;;;;;;;10.65;6.45;;;3.60;79.50;;;;;;4154145;28;20021;-83
2022/12/06 06:27:55;;;;;;;10.77;6.45;;;3.60;79.40;;;;;;4158852;28;20030;-83
2022/12/06 06:30:16;;;;;;;12.35;6.57;;;3.60;79.50;;;;;;4156588;28;20053;-82
2022/12/06 06:32:37;;;;;;;13.38;6.82;;;3.50;79.40;;;;;;4161910;28;20033;-83
2022/12/06 06:34:58;;;;;;;11.65;6.72;;;3.50;79.10;;;;;;4165617;28;20049;-84
2022/12/06 06:37:18;;;;;;;13.07;7.35;;;3.50;79.20;;;;;;4167427;28;20030;-83
2022/12/06 06:39:39;;;;;;;15.95;7.68;;;3.50;79.30;;;;;;4149493;28;20025;-83
2022/12/06 06:41:59;;;;;;;11.27;6.47;;;3.50;79.20;;;;;;4158420;28;20102;-84
2022/12/06 06:44:20;;;;;;;12.10;7.15;;;3.50;79.20;;;;;;4159310;28;20037;-83
2022/12/06 06:46:21;;;;;;;14.45;7.95;;;3.40;79.20;;;;;;4164119;28;20305;-83
2022/12/06 06:48:22;;;;;;;13.02;7.43;;;3.60;79.20;;;;;;4164160;28;20488;-83
2022/12/06 06:50:43;;;;;;;10.93;6.93;;;3.40;79.10;;;;;;4163198;28;20091;-83
2022/12/06 06:53:03;;;;;;;11.85;7.30;;;3.40;79.10;;;;;;4156821;28;20628;-83
2022/12/06 06:55:04;;;;;;;13.57;7.07;;;3.40;79.10;;;;;;4166260;28;20026;-83
2022/12/06 06:57:25;;;;;;;12.70;7.30;;;3.40;79.10;;;;;;4161570;28;20048;-84
2022/12/06 06:59:46;;;;;;;15.85;7.15;;;3.40;79.00;;;;;;4166523;28;20062;-84
2022/12/06 07:02:11;;;;;;;11.43;6.68;;;3.40;78.90;;;;;;4165957;28;20122;-83
2022/12/06 07:04:32;;;;;;;12.50;7.18;;;3.40;79.00;;;;;;4169150;28;20025;-84
2022/12/06 07:06:52;;;;;;;11.10;6.45;;;3.30;78.90;;;;;;4166429;28;20037;-84
2022/12/06 07:09:13;;;;;;;11.27;6.53;;;3.30;79.00;;;;;;4150978;28;20042;-83
2022/12/06 07:11:34;;;;;;;9.98;5.80;;;3.40;78.90;;;;;;4148906;28;20073;-84
2022/12/06 07:13:54;;;;;;;13.70;5.57;;;3.30;79.00;;;;;;4159203;28;20096;-84
2022/12/06 07:16:15;;;;;;;11.65;5.60;;;3.40;79.00;;;;;;4161191;28;20069;-83
2022/12/06 07:18:36;;;;;;;10.75;6.22;;;3.30;78.90;;;;;;4160095;28;20030;-83
2022/12/06 07:21:03;;;;;;;11.30;5.97;;;3.30;78.80;;;;;;4149614;28;20038;-83
2022/12/06 07:23:23;;;;;;;9.77;5.78;;;3.30;78.70;;;;;;4150603;28;20097;-83
2022/12/06 07:25:44;;;;;;;13.63;6.32;;;3.30;78.60;;;;;;4173919;28;20041;-84
2022/12/06 07:27:45;;;;;;;9.43;5.53;;;3.30;78.50;;;;;;4165240;28;20526;-84
2022/12/06 07:29:45;;;;;;;9.05;5.95;;;3.30;78.50;;;;;;4145681;28;20034;-83
2022/12/06 07:32:06;;;;;;;9.32;5.53;;;3.30;78.60;;;;;;4167392;28;20097;-83
2022/12/06 07:34:26;;;;;;;9.82;6.05;;;3.30;78.60;;;;;;4166041;28;20029;-83
2022/12/06 07:36:47;;;;;;;9.45;5.90;;;3.30;78.60;;;;;;4164478;28;20160;-84
2022/12/06 07:39:08;;;;;;;10.38;6.00;;;3.20;78.50;;;;;;4160618;28;20134;-83
2022/12/06 07:46:49;;;;;;;11.05;6.05;;;3.20;78.40;;;;;;4168599;28;20029;-83
2022/12/06 07:49:10;;;;;;;11.80;6.40;;;3.20;78.20;;;;;;4162183;28;20057;-83
2022/12/06 07:51:31;;;;;;;9.20;5.75;;;3.20;78.30;;;;;;4166592;28;20036;-83
2022/12/06 07:53:52;;;;;;;12.73;6.30;;;3.20;78.30;;;;;;4163094;28;20037;-84
2022/12/06 07:55:52;;;;;;;10.45;6.03;;;3.20;78.20;;;;;;4163374;28;20525;-84
2022/12/06 07:57:53;;;;;;;10.57;6.25;;;3.10;78.20;;;;;;4143886;28;20114;-84
2022/12/06 07:59:55;;;;;;;10.00;6.13;;;3.20;78.40;;;;;;4160179;28;20026;-84
2022/12/06 08:02:18;;;;;;;9.77;5.70;;;3.10;78.30;;;;;;4159350;28;20108;-84
2022/12/06 08:04:38;;;;;;;10.50;6.18;;;3.20;78.30;;;;;;4164364;28;20056;-83
2022/12/06 08:06:51;;;;;;;11.65;6.50;;;3.10;78.20;;;;;;4143424;28;20037;-83
2022/12/06 08:08:57;;;;;;;10.07;5.63;;;3.10;78.20;;;;;;4142044;28;20511;-83
2022/12/06 08:11:19;;;;;;;10.07;5.95;;;3.10;78.30;;;;;;4161927;28;20059;-84
2022/12/06 08:13:40;;;;;;;11.70;6.03;;;3.10;78.30;;;;;;4151102;28;20046;-84
2022/12/06 08:16:11;;;;;;;13.63;5.85;;;3.10;78.30;;;;;;4150785;28;20030;-84
2022/12/06 08:18:32;;;;;;;10.73;5.68;;;3.10;78.20;;;;;;4150641;28;20037;-84
2022/12/06 08:20:53;;;;;;;12.63;5.88;;;3.10;78.30;;;;;;4170399;28;20085;-83
2022/12/06 08:23:13;;;;;;;10.63;5.72;;;3.10;78.20;;;;;;4164936;28;20045;-83
2022/12/06 08:25:34;;;;;;;8.93;5.70;;;3.20;78.30;;;;;;4162079;28;20084;-83
2022/12/06 08:27:34;;;;;;;9.30;5.50;;;3.10;78.20;;;;;;4149362;28;20837;-84
2022/12/06 08:29:55;;;;;;;9.98;5.50;;;3.10;78.20;;;;;;4162461;28;20025;-83
2022/12/06 08:32:16;;;;;;;9.18;4.93;;;3.10;78.30;;;;;;4152364;28;20068;-84
2022/12/06 08:34:37;;;;;;;9.70;5.55;;;3.10;78.30;;;;;;4150849;28;20026;-84
2022/12/06 08:36:57;;;;;;;7.47;4.63;;;3.10;78.30;;;;;;4160727;28;20022;-83
2022/12/06 08:39:18;;;;;;;8.10;4.35;;;3.10;78.40;;;;;;4161092;28;20119;-84
2022/12/06 08:41:54;;;;;;;5.93;3.85;;;3.10;78.30;;;;;;4165125;28;20036;-83
2022/12/06 08:44:15;;;;;;;7.97;4.47;;;3.10;78.30;;;;;;4163330;28;20056;-83
2022/12/06 08:46:36;;;;;;;7.15;4.53;;;3.10;78.30;;;;;;4157970;28;20082;-83
2022/12/06 08:48:37;;;;;;;9.00;4.97;;;3.20;78.40;;;;;;4163813;28;20052;-83
2022/12/06 08:50:38;;;;;;;6.05;3.63;;;3.10;78.30;;;;;;4166553;28;20041;-84
2022/12/06 08:52:58;;;;;;;8.00;4.60;;;3.10;78.30;;;;;;4156153;28;20057;-83
2022/12/06 08:54:59;;;;;;;7.70;4.60;;;3.10;78.30;;;;;;4167829;28;20518;-83
2022/12/06 08:57:00;;;;;;;8.32;4.55;;;3.10;78.20;;;;;;4149997;28;20033;-83
2022/12/06 08:59:20;;;;;;;6.55;4.15;;;3.10;78.10;;;;;;4163280;28;20029;-84
2022/12/06 09:01:41;;;;;;;7.03;3.83;;;3.10;78.10;;;;;;4169556;28;20029;-84
2022/12/06 09:04:04;;;;;;;8.35;4.28;;;3.10;78.00;;;;;;4171121;28;20021;-83
2022/12/06 09:06:26;;;;;;;6.65;4.32;;;3.10;78.00;;;;;;4164407;28;20045;-84
2022/12/06 09:08:47;;;;;;;9.07;4.65;;;3.10;77.90;;;;;;4164477;28;20120;-83
2022/12/06 09:11:08;;;;;;;7.63;4.70;;;3.10;77.90;;;;;;4160321;28;20073;-83
2022/12/06 09:13:29;;;;;;;7.15;4.38;;;3.10;77.80;;;;;;4161132;28;20029;-83
2022/12/06 09:15:50;;;;;;;7.70;4.80;;;3.10;77.80;;;;;;4162929;28;20049;-83
2022/12/06 09:18:10;;;;;;;9.18;5.05;;;3.10;77.80;;;;;;4165741;28;20049;-83
2022/12/06 09:20:31;;;;;;;6.97;4.72;;;3.10;77.70;;;;;;4159045;28;20033;-82
2022/12/06 09:22:51;;;;;;;8.55;5.00;;;3.10;77.70;;;;;;4156766;28;20120;-84
2022/12/06 09:25:12;;;;;;;8.88;5.20;;;3.10;77.80;;;;;;4160349;28;20057;-83
2022/12/06 09:27:33;;;;;;;8.73;5.20;;;3.10;77.60;;;;;;4164158;28;20506;-84
2022/12/06 09:29:53;;;;;;;7.90;5.00;;;3.10;77.60;;;;;;4163645;28;20087;-83
2022/12/06 09:31:54;;;;;;;8.82;4.93;;;3.10;77.60;;;;;;4163960;28;20026;-84
2022/12/06 09:33:55;;;;;;;9.00;5.53;;;3.10;77.50;;;;;;4146073;28;20555;-83
2022/12/06 09:35:57;;;;;;;9.98;5.00;;;3.10;77.50;;;;;;4159900;28;20037;-83
2022/12/06 09:37:59;;;;;;;9.63;5.85;;;3.10;77.40;;;;;;4165008;28;20033;-83
2022/12/06 09:40:34;;;;;;;12.43;6.45;;;3.00;77.30;;;;;;4164126;28;20036;-84
2022/12/06 09:42:58;;;;;;;9.77;6.05;;;3.10;77.50;;;;;;4166512;28;20025;-83
2022/12/06 09:45:20;;;;;;;10.95;6.50;;;3.10;77.40;;;;;;4160243;28;20384;-84
2022/12/06 09:47:33;;;;;;;9.95;6.10;;;3.00;77.30;;;;;;4164350;28;20450;-83
2022/12/06 09:49:46;;;;;;;14.45;6.25;;;3.00;77.30;;;;;;4145044;28;20946;-83
2022/12/06 09:52:07;;;;;;;9.27;5.95;;;3.00;77.40;;;;;;4162017;28;20117;-83
2022/12/06 09:54:26;;;;;;;10.82;5.75;;;3.00;77.50;;;;;;4155859;28;20033;-83
2022/12/06 09:56:41;;;;;;;9.85;5.32;;;3.10;77.60;;;;;;4148079;28;20033;-83
2022/12/06 09:59:33;;;;;;;12.40;5.57;;;3.10;77.60;;;;;;4163489;28;20451;-83
2022/12/06 10:02:24;;;;;;;9.85;5.53;;;3.10;78.10;;;;;;4137136;28;20053;-83
2022/12/06 10:05:00;;;;;;;8.90;5.10;;;3.10;77.30;;;;;;4148011;28;20428;-83
2022/12/06 10:07:42;;;;;;;9.88;5.50;;;3.10;77.30;;;;;;4157082;28;20029;-83
2022/12/06 10:10:59;;;;;;;9.05;5.47;;;3.10;77.40;;;;;;4160011;28;20123;-82
2022/12/06 10:13:38;;;;;;;9.18;5.38;;;3.10;77.40;;;;;;4100029;28;20088;-84
2022/12/06 10:16:29;;;;;;;11.90;5.13;;;3.10;76.90;;;;;;4112793;28;20034;-84
2022/12/06 10:19:20;;;;;;;9.30;5.18;;;3.10;76.60;;;;;;4133016;28;20040;-84
2022/12/06 10:21:42;;;;;;;8.75;5.07;;;3.20;76.80;;;;;;4146614;28;20021;-84
2022/12/06 10:24:33;;;;;;;9.30;5.22;;;3.10;76.70;;;;;;4145629;28;20030;-83
2022/12/06 10:27:02;;;;;;;8.20;4.68;;;3.20;76.80;;;;;;4162913;28;20052;-83
2022/12/06 10:29:45;;;;;;;9.65;4.93;;;3.20;76.70;;;;;;4152743;28;20049;-83
2022/12/06 10:32:18;;;;;;;8.82;4.70;;;3.20;76.50;;;;;;4156575;28;20050;-83
2022/12/06 10:34:48;;;;;;;10.93;4.15;;;3.20;76.20;;;;;;4166185;28;20034;-83
2022/12/06 10:37:35;;;;;;;6.38;4.13;;;3.20;76.30;;;;;;4161458;28;20117;-84
2022/12/06 10:40:29;;;;;;;7.63;4.18;;;3.20;76.40;;;;;;4161639;28;20049;-83
2022/12/06 10:42:55;;;;;;;8.05;4.50;;;3.20;76.10;;;;;;4148862;28;20496;-83
2022/12/06 10:48:18;;;;;;;8.48;4.53;;;3.20;75.90;;;;;;4152014;28;20030;-83
2022/12/06 10:50:26;;;;;;;8.98;4.57;;;3.30;75.80;;;;;;4145340;28;20027;-83
2022/12/06 10:52:39;;;;;;;8.57;4.45;;;3.30;75.90;;;;;;4157742;28;20050;-83
2022/12/06 10:55:28;;;;;;;7.63;4.28;;;3.30;76.00;;;;;;4148532;28;20075;-83
2022/12/06 10:58:18;;;;;;;7.68;4.05;;;3.30;75.80;;;;;;4146958;28;20038;-83
2022/12/06 11:00:22;;;;;;;7.22;4.55;;;3.30;75.70;;;;;;4161190;28;20079;-83
2022/12/06 11:02:56;;;;;;;7.03;4.32;;;3.30;75.70;;;;;;4152252;28;20042;-83
2022/12/06 11:05:50;;;;;;;8.07;4.28;;;3.40;75.70;;;;;;4145660;28;20034;-82
2022/12/06 11:08:10;;;;;;;6.70;3.65;;;3.40;75.50;;;;;;4160385;28;20054;-82
2022/12/06 11:10:33;;;;;;;7.82;4.25;;;3.40;75.30;;;;;;4156851;28;20033;-82
2022/12/06 11:13:00;;;;;;;6.43;3.78;;;3.40;75.20;;;;;;4146453;28;20042;-83
2022/12/06 11:15:34;;;;;;;10.68;3.50;;;3.40;75.00;;;;;;4166788;28;20036;-83
2022/12/06 11:18:02;;;;;;;6.90;3.67;;;3.40;74.90;;;;;;4145856;28;20041;-83
2022/12/06 11:21:00;;;;;;;8.23;3.55;;;3.50;75.00;;;;;;4159712;28;20499;-83
2022/12/06 11:23:40;;;;;;;6.50;3.38;;;3.50;74.80;;;;;;4163765;28;20026;-82
2022/12/06 11:26:29;;;;;;;5.10;3.50;;;3.50;74.40;;;;;;4148517;28;20547;-82
2022/12/06 11:29:08;;;;;;;5.70;3.00;;;3.50;74.30;;;;;;4163284;28;20033;-82
2022/12/06 11:31:27;;;;;;;8.45;3.10;;;3.50;74.40;;;;;;4159677;28;20524;-82
2022/12/06 11:33:32;;;;;;;8.85;3.22;;;3.60;74.40;;;;;;4159167;28;20083;-83
2022/12/06 11:35:33;;;;;;;4.47;3.10;;;3.60;74.40;;;;;;4141772;28;20025;-82
2022/12/06 11:37:36;;;;;;;6.03;3.55;;;3.60;74.30;;;;;;4162186;28;20549;-84
2022/12/06 11:39:38;;;;;;;5.90;3.22;;;3.60;74.10;;;;;;4148607;28;20053;-83
2022/12/06 11:41:48;;;;;;;4.65;3.20;;;3.60;73.80;;;;;;4149337;28;20455;-82
2022/12/06 11:44:15;;;;;;;5.28;2.90;;;3.60;73.50;;;;;;4145032;28;20052;-82
2022/12/06 11:46:35;;;;;;;6.82;3.38;;;3.70;73.40;;;;;;4160503;28;20038;-83
2022/12/06 11:48:37;;;;;;;6.38;3.47;;;3.60;73.00;;;;;;4161678;28;20432;-82
2022/12/06 11:50:57;;;;;;;4.45;2.90;;;3.60;73.10;;;;;;4156336;28;20042;-83
2022/12/06 11:53:24;;;;;;;6.97;3.22;;;3.60;72.80;;;;;;4166216;28;20099;-83
2022/12/06 11:55:49;;;;;;;6.82;3.80;;;3.70;72.90;;;;;;4159976;28;20030;-83
2022/12/06 11:58:10;;;;;;;6.63;3.83;;;3.70;72.80;;;;;;4161327;28;20033;-83
2022/12/06 12:00:31;;;;;;;4.47;3.10;;;3.60;72.60;;;;;;4156500;28;20029;-82
2022/12/06 12:02:54;;;;;;;6.35;3.38;;;3.70;72.40;;;;;;4172636;28;20040;-83
2022/12/06 12:05:21;;;;;;;5.27;3.20;;;3.60;72.30;;;;;;4174740;28;20037;-84
2022/12/06 12:07:45;;;;;;;5.88;3.17;;;3.70;72.40;;;;;;4164670;28;20045;-83
2022/12/06 12:10:26;;;;;;;9.70;3.08;;;3.70;72.20;;;;;;4168404;28;20038;-84
2022/12/06 12:15:27;;;;;;;6.30;3.05;;;3.70;71.70;;;;;;4169649;28;20029;-84
2022/12/06 12:17:52;;;;;;;4.75;2.63;;;3.70;71.70;;;;;;4164182;28;20165;-83
2022/12/06 12:20:30;;;;;;;5.53;2.90;;;3.80;71.50;;;;;;4151732;28;20029;-83
2022/12/06 12:23:04;;;;;;;8.18;3.03;;;3.70;71.20;;;;;;4167137;28;20116;-84
2022/12/06 12:25:28;;;;;;;4.97;3.10;;;3.70;71.00;;;;;;4146145;28;20091;-84
2022/12/06 12:28:20;;;;;;;4.38;2.47;;;3.60;70.70;;;;;;4148323;28;20102;-83
2022/12/06 12:30:52;;;;;;;4.63;2.75;;;3.70;71.00;;;;;;4152973;28;20249;-83
2022/12/06 12:33:18;;;;;;;5.05;2.55;;;3.60;70.00;;;;;;4159254;28;20052;-82
2022/12/06 12:36:07;;;;;;;5.60;2.63;;;3.50;69.90;;;;;;4149491;28;20044;-84
2022/12/06 12:38:33;;;;;;;4.15;2.08;;;3.70;69.90;;;;;;4164074;28;20037;-83
2022/12/06 12:40:53;;;;;;;3.30;1.90;;;3.60;70.00;;;;;;4159358;28;20032;-83